Bruceton Mills, West Virginia
Current Conditions -  °F | °C
As of 6:53 AM on Monday 22 Dec 2014 (Local Time) from KMGW Reporting Station
Broken Clouds Broken Clouds  
Wind Chill: -1°   Ceiling: 4400
Heat Index: -1°   Visibility: 10mi
Dew Point: -6°   Wind: 0mph
Humidity: 69%   Direction: NA
Pressure: 30.12"   Gusts: NA
Location:  39.66°N, 79.64°W
Report Text: KMGW 221153Z AUTO 00000KT 10SM BKN044 M01/M06 A3012 RMK AO2 SLP213 T10061056 10006 21011 53003 TSNO
Loading
Personal Weather Stations






























Interactive Weather Map New forecast layout! Learn more

10-Day Weather Forecast

Advertisements
Track Severe Weather on mobile